Time;durP1;ratioP1;P1;durP2;ratioP2;P2;SDS_P1;SDS_P2;PMS_P1;PMS_P2;Temp;Humidity;BMP_temperature;BMP_pressure;BME280_temperature;BME280_humidity;BME280_pressure;Samples;Min_cycle;Max_cycle;Signal;HPM_P1;HPM_P2
2023/06/05 00:01:13;;;;;;;2.97;2.60;;;16.00;69.80;;;;;;4918810;29;20244;-73
2023/06/05 00:03:39;;;;;;;3.30;2.60;;;16.20;70.60;;;;;;4919858;29;20186;-73
2023/06/05 00:06:06;;;;;;;3.83;2.67;;;16.20;71.00;;;;;;4899319;29;20829;-72
2023/06/05 00:08:32;;;;;;;3.05;2.63;;;16.10;71.40;;;;;;4906977;29;20661;-72
2023/06/05 00:10:57;;;;;;;2.83;2.63;;;16.30;72.20;;;;;;4920333;29;20213;-72
2023/06/05 00:13:23;;;;;;;3.20;2.30;;;15.80;73.00;;;;;;4917683;29;20869;-73
2023/06/05 00:15:50;;;;;;;2.50;2.30;;;15.90;74.30;;;;;;4898646;29;20228;-73
2023/06/05 00:18:17;;;;;;;3.13;2.30;;;16.10;73.90;;;;;;4916561;29;20224;-74
2023/06/05 00:20:43;;;;;;;2.70;2.50;;;15.70;73.50;;;;;;4914231;29;20213;-74
2023/06/05 00:23:11;;;;;;;3.03;2.67;;;15.80;74.50;;;;;;4907119;29;20221;-74
2023/06/05 00:25:37;;;;;;;4.07;2.80;;;15.80;75.00;;;;;;4908753;29;20257;-74
2023/06/05 00:28:02;;;;;;;2.70;2.50;;;15.70;75.10;;;;;;4900710;29;20582;-74
2023/06/05 00:30:28;;;;;;;2.60;2.40;;;15.80;75.70;;;;;;4901859;29;20476;-74
2023/06/05 00:32:54;;;;;;;3.17;2.73;;;15.80;76.10;;;;;;4905677;29;20461;-74
2023/06/05 00:35:20;;;;;;;3.23;2.70;;;15.50;75.70;;;;;;4916990;29;20213;-74
2023/06/05 00:37:46;;;;;;;3.45;2.75;;;15.70;76.20;;;;;;4916818;29;20186;-74
2023/06/05 00:40:12;;;;;;;2.70;2.50;;;15.40;76.00;;;;;;4922574;29;20213;-74
2023/06/05 00:42:38;;;;;;;2.97;2.50;;;15.50;76.40;;;;;;4914820;29;20208;-74
2023/06/05 00:45:07;;;;;;;2.47;2.10;;;15.60;76.90;;;;;;4913366;29;20201;-74
2023/06/05 00:47:33;;;;;;;2.47;2.28;;;15.80;78.10;;;;;;4920885;29;20182;-74
2023/06/05 00:50:00;;;;;;;3.42;2.30;;;15.40;77.80;;;;;;4909766;29;20225;-74
2023/06/05 00:52:26;;;;;;;3.00;2.53;;;15.30;78.40;;;;;;4918846;29;20224;-74
2023/06/05 00:54:53;;;;;;;4.05;3.30;;;15.30;78.70;;;;;;4898394;29;20190;-74
2023/06/05 00:57:19;;;;;;;4.55;2.40;;;15.60;79.40;;;;;;4895989;29;20504;-74
2023/06/05 00:59:45;;;;;;;2.63;2.42;;;15.50;79.80;;;;;;4902892;29;20206;-74
2023/06/05 01:02:13;;;;;;;3.60;2.47;;;15.40;79.80;;;;;;4905365;29;20218;-74
2023/06/05 01:04:43;;;;;;;2.80;2.60;;;15.20;80.00;;;;;;4902391;29;20453;-74
2023/06/05 01:07:13;;;;;;;3.00;2.28;;;15.30;80.40;;;;;;4911017;29;20182;-74
2023/06/05 01:09:40;;;;;;;3.03;2.65;;;15.30;80.20;;;;;;4917741;29;20206;-74
2023/06/05 01:12:24;;;;;;;3.00;2.70;;;15.10;80.80;;;;;;4896645;29;20185;-74
2023/06/05 01:14:51;;;;;;;3.38;2.20;;;15.00;82.00;;;;;;4902595;29;20193;-74
2023/06/05 01:17:20;;;;;;;3.60;2.20;;;15.00;82.20;;;;;;4901685;29;20268;-74
2023/06/05 01:19:46;;;;;;;3.03;2.72;;;15.20;82.40;;;;;;4918112;29;20197;-74
2023/06/05 01:22:15;;;;;;;2.40;2.20;;;14.80;82.40;;;;;;4916766;29;20226;-74
2023/06/05 01:24:41;;;;;;;3.17;2.42;;;14.90;83.00;;;;;;4919061;29;20214;-74
2023/06/05 01:27:15;;;;;;;2.93;2.40;;;14.80;83.10;;;;;;4906841;29;20216;-74
2023/06/05 01:30:00;;;;;;;2.85;2.55;;;14.90;83.50;;;;;;4922186;29;20890;-74
2023/06/05 01:32:44;;;;;;;2.35;2.15;;;14.80;83.60;;;;;;4915925;29;20213;-74
2023/06/05 01:35:10;;;;;;;2.83;2.63;;;14.80;84.00;;;;;;4919384;29;20583;-74
2023/06/05 01:37:41;;;;;;;3.63;2.20;;;14.80;84.60;;;;;;4907561;29;20217;-74
2023/06/05 01:40:14;;;;;;;2.90;2.10;;;14.70;85.20;;;;;;4906724;29;20633;-74
2023/06/05 01:42:42;;;;;;;4.35;2.75;;;14.40;85.50;;;;;;4899671;29;20582;-75
2023/06/05 01:45:09;;;;;;;3.47;2.40;;;14.50;86.10;;;;;;4921280;29;20190;-74
2023/06/05 01:47:36;;;;;;;2.83;2.40;;;14.40;87.30;;;;;;4922808;29;20703;-74
2023/06/05 01:50:02;;;;;;;3.17;2.50;;;14.50;87.10;;;;;;4919694;29;20544;-74
2023/06/05 01:52:27;;;;;;;2.50;2.30;;;14.30;87.10;;;;;;4915165;29;20197;-74
2023/06/05 01:54:54;;;;;;;3.17;2.60;;;14.50;87.60;;;;;;4911403;29;21035;-74
2023/06/05 01:57:20;;;;;;;2.38;2.17;;;14.30;88.00;;;;;;4920462;29;20197;-74
2023/06/05 01:59:46;;;;;;;4.07;2.85;;;14.20;88.20;;;;;;4905177;29;20296;-73
2023/06/05 02:02:14;;;;;;;2.70;2.50;;;14.60;88.90;;;;;;4920186;29;20717;-74
2023/06/05 02:04:40;;;;;;;4.05;2.75;;;14.80;89.40;;;;;;4907077;29;20289;-73
2023/06/05 02:07:07;;;;;;;3.17;2.87;;;14.40;89.60;;;;;;4914864;29;20273;-73
2023/06/05 02:09:32;;;;;;;2.90;2.40;;;14.20;90.00;;;;;;4915437;29;20757;-74
2023/06/05 02:12:03;;;;;;;2.60;2.40;;;14.10;90.50;;;;;;4900184;29;20293;-74
2023/06/05 02:14:35;;;;;;;3.38;2.83;;;14.20;90.70;;;;;;4898062;29;20289;-74
2023/06/05 02:17:04;;;;;;;4.25;2.80;;;14.10;90.80;;;;;;4902946;29;20197;-74
2023/06/05 02:19:30;;;;;;;3.25;2.75;;;13.90;90.60;;;;;;4900382;29;20189;-74
2023/06/05 02:21:56;;;;;;;5.47;2.50;;;14.00;90.80;;;;;;4906989;29;20213;-74
2023/06/05 02:24:22;;;;;;;4.67;4.10;;;13.60;90.50;;;;;;4899126;29;20446;-74
2023/06/05 02:26:48;;;;;;;3.45;2.63;;;14.00;90.80;;;;;;4899364;29;20193;-74
2023/06/05 02:29:14;;;;;;;4.77;3.03;;;14.00;90.70;;;;;;4913825;29;20182;-74
2023/06/05 02:31:39;;;;;;;3.17;2.80;;;13.80;90.70;;;;;;4917623;29;20198;-74
2023/06/05 02:34:05;;;;;;;2.70;2.50;;;14.00;91.00;;;;;;4920791;29;20198;-74
2023/06/05 02:36:32;;;;;;;2.80;2.30;;;14.00;91.00;;;;;;4900459;29;20220;-74
2023/06/05 02:38:59;;;;;;;3.03;2.72;;;13.90;91.00;;;;;;4902783;29;20194;-74
2023/06/05 02:41:26;;;;;;;2.60;2.40;;;14.00;91.10;;;;;;4899945;29;20679;-74
2023/06/05 02:43:54;;;;;;;3.67;2.58;;;13.70;91.10;;;;;;4918712;29;20182;-74
2023/06/05 02:46:21;;;;;;;2.80;2.60;;;13.60;91.20;;;;;;4923258;29;20186;-74
2023/06/05 02:48:47;;;;;;;3.40;2.42;;;13.90;91.40;;;;;;4902884;29;20185;-74
2023/06/05 02:51:13;;;;;;;3.33;2.60;;;14.00;91.70;;;;;;4908141;29;20225;-74
2023/06/05 02:53:38;;;;;;;2.27;2.00;;;13.60;91.70;;;;;;4918096;29;20486;-74
2023/06/05 02:56:05;;;;;;;3.60;2.90;;;13.60;92.00;;;;;;4906283;29;20192;-74
2023/06/05 02:58:33;;;;;;;2.80;2.50;;;13.80;92.20;;;;;;4919562;29;20450;-74
2023/06/05 03:01:02;;;;;;;2.40;2.20;;;13.70;92.10;;;;;;4897843;29;20289;-74
2023/06/05 03:03:31;;;;;;;3.90;2.60;;;13.70;92.30;;;;;;4913152;29;20613;-74
2023/06/05 03:06:06;;;;;;;2.63;2.40;;;13.40;92.30;;;;;;4918191;29;20190;-74
2023/06/05 03:08:36;;;;;;;3.15;2.45;;;13.40;92.50;;;;;;4900846;29;20232;-74
2023/06/05 03:11:05;;;;;;;2.70;2.50;;;13.50;92.80;;;;;;4918819;29;20206;-74
2023/06/05 03:13:32;;;;;;;3.58;3.00;;;13.40;93.20;;;;;;4914227;29;20217;-74
2023/06/05 03:16:00;;;;;;;3.55;2.80;;;13.30;93.70;;;;;;4898956;29;20197;-74
2023/06/05 03:18:27;;;;;;;3.90;2.88;;;13.30;93.20;;;;;;4899453;29;20664;-74
2023/06/05 03:20:56;;;;;;;4.03;2.28;;;13.20;93.10;;;;;;4915020;29;20209;-74
2023/06/05 03:23:27;;;;;;;3.08;2.45;;;13.30;93.30;;;;;;4901600;29;20206;-74
2023/06/05 03:25:56;;;;;;;5.10;2.53;;;13.60;93.50;;;;;;4904160;29;20269;-74
2023/06/05 03:28:23;;;;;;;3.55;2.72;;;13.20;93.40;;;;;;4904165;29;20196;-74
2023/06/05 03:30:49;;;;;;;3.55;2.80;;;13.40;93.60;;;;;;4908922;29;20209;-74
2023/06/05 03:33:17;;;;;;;4.40;2.70;;;13.20;93.60;;;;;;4910332;29;20190;-74
2023/06/05 03:35:45;;;;;;;3.45;2.92;;;13.20;93.90;;;;;;4908368;29;21176;-74
2023/06/05 03:38:12;;;;;;;3.80;3.10;;;13.20;94.00;;;;;;4905082;29;20194;-74
2023/06/05 03:40:40;;;;;;;10.15;3.35;;;13.10;94.10;;;;;;4899976;29;20218;-74
2023/06/05 03:43:06;;;;;;;4.00;3.20;;;13.00;94.10;;;;;;4901797;29;20222;-74
2023/06/05 03:45:39;;;;;;;2.80;2.60;;;13.10;94.00;;;;;;4898603;29;20221;-74
2023/06/05 03:48:05;;;;;;;3.08;2.78;;;13.30;94.00;;;;;;4906517;29;20196;-74
2023/06/05 03:50:32;;;;;;;3.17;2.55;;;13.40;94.20;;;;;;4910211;29;20206;-74
2023/06/05 03:53:02;;;;;;;4.35;3.20;;;13.10;94.20;;;;;;4914719;29;20221;-74
2023/06/05 03:55:44;;;;;;;2.60;2.40;;;13.10;94.30;;;;;;4920830;29;20188;-74
2023/06/05 03:58:15;;;;;;;3.00;2.70;;;13.00;94.30;;;;;;4903758;29;20227;-74
2023/06/05 04:00:45;;;;;;;3.50;2.75;;;13.10;94.30;;;;;;4917812;29;20220;-74
2023/06/05 04:03:12;;;;;;;3.75;3.08;;;13.30;94.60;;;;;;4901035;29;20546;-74
2023/06/05 04:05:38;;;;;;;3.08;2.78;;;13.10;94.60;;;;;;4919227;29;20182;-74
2023/06/05 04:08:05;;;;;;;3.05;2.72;;;13.20;95.10;;;;;;4914313;29;20183;-74
2023/06/05 04:10:31;;;;;;;4.10;2.90;;;13.10;94.90;;;;;;4907364;29;20317;-74
2023/06/05 04:12:57;;;;;;;4.33;3.03;;;13.20;95.30;;;;;;4919970;29;20190;-74
2023/06/05 04:15:27;;;;;;;2.90;2.60;;;13.30;95.60;;;;;;4905533;29;20238;-74
2023/06/05 04:17:52;;;;;;;3.03;2.65;;;13.00;95.20;;;;;;4899821;29;20872;-74
2023/06/05 04:20:18;;;;;;;5.00;3.10;;;13.10;95.20;;;;;;4898316;29;20268;-74
2023/06/05 04:22:45;;;;;;;2.60;2.40;;;13.30;95.40;;;;;;4919552;29;20214;-74
2023/06/05 04:25:12;;;;;;;2.88;2.58;;;13.00;95.30;;;;;;4900953;29;20455;-74
2023/06/05 04:27:42;;;;;;;2.78;2.40;;;13.10;95.30;;;;;;4901923;29;20677;-74
2023/06/05 04:30:10;;;;;;;3.30;2.83;;;13.40;95.30;;;;;;4919937;29;20214;-74
2023/06/05 04:32:39;;;;;;;4.22;3.25;;;13.40;95.20;;;;;;4901798;29;20182;-74
2023/06/05 04:35:06;;;;;;;4.15;3.35;;;13.40;94.90;;;;;;4918644;29;20232;-74
2023/06/05 04:37:40;;;;;;;4.10;2.97;;;13.20;94.60;;;;;;4916066;29;20195;-74
2023/06/05 04:40:09;;;;;;;3.10;2.90;;;13.40;94.80;;;;;;4916139;29;20213;-74
2023/06/05 04:42:36;;;;;;;5.38;3.25;;;13.50;94.60;;;;;;4902883;29;20216;-74
2023/06/05 04:45:04;;;;;;;4.65;3.00;;;13.70;94.60;;;;;;4906718;29;20209;-73
2023/06/05 04:47:31;;;;;;;3.20;2.90;;;13.60;94.40;;;;;;4919377;29;20663;-74
2023/06/05 04:50:05;;;;;;;4.07;3.25;;;13.80;94.30;;;;;;4908954;29;20205;-74
2023/06/05 04:52:32;;;;;;;3.40;3.10;;;14.00;94.10;;;;;;4916824;29;20192;-74
2023/06/05 04:54:59;;;;;;;4.40;2.65;;;14.20;94.00;;;;;;4919130;29;20755;-74
2023/06/05 04:57:26;;;;;;;3.63;3.33;;;14.00;93.80;;;;;;4910498;29;20190;-73
2023/06/05 04:59:52;;;;;;;3.55;3.00;;;14.00;93.80;;;;;;4915449;29;20663;-74
2023/06/05 05:02:17;;;;;;;4.28;3.35;;;14.00;93.70;;;;;;4901657;29;20209;-74
2023/06/05 05:04:43;;;;;;;5.20;3.30;;;14.40;93.80;;;;;;4919489;29;20187;-74
2023/06/05 05:07:14;;;;;;;4.80;3.00;;;14.00;93.50;;;;;;4899207;29;20190;-74
2023/06/05 05:09:40;;;;;;;3.97;3.15;;;14.50;93.70;;;;;;4922055;29;20206;-74
2023/06/05 05:12:07;;;;;;;2.93;2.73;;;14.70;93.70;;;;;;4917755;29;20189;-74
2023/06/05 05:14:32;;;;;;;3.92;3.20;;;14.60;93.60;;;;;;4912343;29;20445;-74
2023/06/05 05:16:58;;;;;;;3.10;2.80;;;14.80;93.30;;;;;;4918255;29;20741;-74
2023/06/05 05:19:24;;;;;;;3.30;3.10;;;14.70;91.40;;;;;;4914821;29;20189;-74
2023/06/05 05:21:50;;;;;;;4.63;4.00;;;15.30;92.40;;;;;;4917792;29;20270;-74
2023/06/05 05:24:15;;;;;;;6.60;3.60;;;14.90;91.70;;;;;;4920285;29;20442;-70
2023/06/05 05:26:41;;;;;;;3.80;3.17;;;15.10;91.70;;;;;;4916514;29;20668;-70
2023/06/05 05:29:07;;;;;;;5.97;4.80;;;15.10;91.60;;;;;;4914211;29;20664;-70
2023/06/05 05:31:33;;;;;;;4.85;3.80;;;15.30;91.60;;;;;;4918858;29;20274;-70
2023/06/05 05:33:59;;;;;;;4.03;3.63;;;15.40;91.40;;;;;;4912822;29;20190;-69
2023/06/05 05:36:26;;;;;;;4.40;3.67;;;15.60;91.20;;;;;;4914999;29;20442;-70
2023/06/05 05:38:52;;;;;;;3.45;3.10;;;15.60;90.50;;;;;;4899433;29;20236;-69
2023/06/05 05:41:18;;;;;;;4.50;4.10;;;15.30;90.20;;;;;;4912568;29;20214;-69
2023/06/05 05:43:43;;;;;;;4.37;3.63;;;16.10;91.00;;;;;;4913080;29;20228;-69
2023/06/05 05:46:09;;;;;;;4.40;3.00;;;16.50;88.30;;;;;;4916900;29;20248;-70
2023/06/05 05:48:38;;;;;;;3.80;3.20;;;16.60;87.20;;;;;;4916640;29;20197;-70
2023/06/05 05:51:06;;;;;;;3.72;3.35;;;16.80;88.30;;;;;;4914875;29;20579;-72
2023/06/05 05:53:32;;;;;;;4.03;3.63;;;17.00;85.30;;;;;;4898254;29;20194;-72
2023/06/05 05:55:58;;;;;;;4.37;3.10;;;17.00;84.70;;;;;;4916839;29;20193;-72
2023/06/05 05:58:24;;;;;;;7.78;3.25;;;17.30;85.50;;;;;;4917148;29;20241;-69
2023/06/05 06:00:49;;;;;;;4.30;3.43;;;17.50;82.70;;;;;;4915410;29;20214;-71
2023/06/05 06:03:16;;;;;;;3.83;3.27;;;17.70;85.00;;;;;;4911567;29;20212;-69
2023/06/05 06:05:42;;;;;;;4.13;3.67;;;17.90;82.70;;;;;;4919400;29;20191;-71
2023/06/05 06:08:08;;;;;;;4.28;3.40;;;18.00;78.50;;;;;;4903258;29;20565;-68
2023/06/05 06:10:34;;;;;;;5.03;3.17;;;17.90;77.20;;;;;;4920648;29;20217;-75
2023/06/05 06:13:00;;;;;;;5.13;3.77;;;17.90;76.70;;;;;;4924009;29;20185;-70
2023/06/05 06:15:27;;;;;;;3.42;3.03;;;18.00;77.00;;;;;;4917459;29;20593;-71
2023/06/05 06:17:53;;;;;;;7.00;3.55;;;18.20;75.60;;;;;;4903938;29;20186;-73
2023/06/05 06:20:19;;;;;;;4.50;3.47;;;18.70;76.00;;;;;;4919300;29;20311;-74
2023/06/05 06:22:44;;;;;;;6.33;2.77;;;18.30;74.50;;;;;;4910791;29;20474;-74
2023/06/05 06:25:12;;;;;;;5.30;3.30;;;18.70;74.30;;;;;;4920376;29;20318;-74
2023/06/05 06:27:38;;;;;;;4.45;3.45;;;18.70;74.40;;;;;;4914514;29;20182;-72
2023/06/05 06:30:04;;;;;;;4.35;3.28;;;18.40;73.90;;;;;;4924621;29;20206;-72
2023/06/05 06:32:30;;;;;;;5.82;4.03;;;18.60;73.40;;;;;;4920451;29;20185;-72
2023/06/05 06:34:56;;;;;;;5.90;2.90;;;18.60;73.20;;;;;;4918991;29;20186;-71
2023/06/05 06:37:22;;;;;;;4.53;3.10;;;18.70;73.10;;;;;;4920549;29;20196;-74
2023/06/05 06:39:48;;;;;;;3.77;3.37;;;18.90;73.20;;;;;;4904841;29;20210;-72
2023/06/05 06:42:14;;;;;;;6.70;3.57;;;18.90;73.10;;;;;;4923985;29;21243;-72
2023/06/05 06:44:40;;;;;;;3.80;3.50;;;19.10;72.70;;;;;;4905043;29;20458;-74
2023/06/05 06:47:06;;;;;;;3.50;3.20;;;19.20;71.80;;;;;;4908128;29;20892;-74
2023/06/05 06:49:33;;;;;;;4.60;3.95;;;19.30;70.90;;;;;;4909249;29;20190;-73
2023/06/05 06:51:58;;;;;;;6.53;3.50;;;19.40;69.30;;;;;;4918413;29;20196;-70
2023/06/05 06:54:25;;;;;;;3.93;3.63;;;19.40;69.20;;;;;;4924895;29;20190;-73
2023/06/05 06:56:51;;;;;;;5.97;3.70;;;19.60;69.20;;;;;;4923930;29;20245;-75
2023/06/05 06:59:17;;;;;;;4.03;3.40;;;19.80;68.60;;;;;;4924899;29;20601;-72
2023/06/05 07:01:47;;;;;;;4.43;4.03;;;20.20;65.80;;;;;;4915626;29;20182;-71
2023/06/05 07:04:20;;;;;;;3.83;3.40;;;20.70;63.80;;;;;;4921428;29;20293;-74
2023/06/05 07:06:46;;;;;;;7.33;3.80;;;22.50;62.70;;;;;;4917565;29;20476;-73
2023/06/05 07:09:12;;;;;;;4.00;3.60;;;24.80;56.10;;;;;;4921386;29;20452;-74
2023/06/05 07:11:38;;;;;;;5.73;5.23;;;27.40;50.90;;;;;;4916642;29;20447;-73
2023/06/05 07:14:04;;;;;;;5.17;4.67;;;29.60;45.50;;;;;;4919544;29;20458;-71
2023/06/05 07:16:31;;;;;;;4.07;3.63;;;31.70;41.80;;;;;;4921386;29;20865;-70
2023/06/05 07:18:57;;;;;;;5.67;3.83;;;32.70;38.50;;;;;;4916695;29;20921;-71
2023/06/05 07:21:22;;;;;;;6.63;4.10;;;32.90;35.20;;;;;;4918550;29;20498;-72
2023/06/05 07:23:51;;;;;;;4.77;3.60;;;32.10;36.70;;;;;;4908039;29;20296;-75
2023/06/05 07:26:20;;;;;;;3.67;3.37;;;34.60;35.20;;;;;;4922657;29;20184;-73
2023/06/05 07:28:49;;;;;;;8.80;4.23;;;36.80;32.40;;;;;;4905845;29;21193;-73
2023/06/05 07:31:15;;;;;;;3.57;3.13;;;37.50;29.80;;;;;;4906677;29;20506;-71
2023/06/05 07:33:42;;;;;;;4.83;3.67;;;36.70;30.00;;;;;;4901627;29;20446;-73
2023/06/05 07:36:08;;;;;;;4.77;4.30;;;38.00;29.60;;;;;;4921560;29;20206;-72
2023/06/05 07:38:33;;;;;;;4.87;4.57;;;37.10;29.60;;;;;;4906404;29;20473;-73
2023/06/05 07:41:01;;;;;;;5.00;3.80;;;37.50;30.00;;;;;;4917816;29;20614;-76
2023/06/05 07:43:27;;;;;;;5.17;4.87;;;39.00;28.80;;;;;;4917753;29;20223;-72
2023/06/05 07:45:53;;;;;;;3.93;3.63;;;38.10;28.10;;;;;;4918325;29;20462;-69
2023/06/05 07:48:20;;;;;;;4.53;4.20;;;38.80;29.00;;;;;;4917362;29;20461;-70
2023/06/05 07:50:45;;;;;;;4.80;4.07;;;39.70;28.10;;;;;;4919712;29;20458;-72
2023/06/05 07:53:11;;;;;;;4.07;3.60;;;38.80;28.00;;;;;;4915153;29;20460;-72
2023/06/05 07:55:37;;;;;;;8.43;4.40;;;39.70;27.70;;;;;;4916721;29;20186;-70
2023/06/05 07:58:02;;;;;;;4.57;4.17;;;40.00;27.20;;;;;;4916437;29;20182;-69
2023/06/05 08:00:28;;;;;;;6.77;5.03;;;38.70;27.30;;;;;;4921035;29;20222;-69
2023/06/05 08:02:54;;;;;;;16.07;6.00;;;38.00;28.10;;;;;;4919565;29;20201;-75
2023/06/05 08:05:20;;;;;;;6.93;4.90;;;37.90;28.60;;;;;;4907842;29;20718;-74
2023/06/05 08:07:46;;;;;;;5.03;4.67;;;36.30;28.40;;;;;;4922438;29;20185;-72
2023/06/05 08:10:13;;;;;;;4.97;4.47;;;36.50;29.40;;;;;;4906304;29;21747;-72
2023/06/05 08:12:39;;;;;;;5.67;4.20;;;38.00;29.50;;;;;;4918778;29;20445;-72
2023/06/05 08:15:06;;;;;;;5.70;5.20;;;38.20;28.90;;;;;;4917995;29;20537;-72
2023/06/05 08:17:31;;;;;;;6.33;5.50;;;38.50;28.50;;;;;;4915108;29;20450;-73
2023/06/05 08:19:57;;;;;;;7.37;5.30;;;37.00;29.40;;;;;;4918156;29;20465;-76
2023/06/05 08:22:23;;;;;;;6.37;4.90;;;37.60;29.60;;;;;;4903533;29;20686;-74
2023/06/05 08:24:49;;;;;;;4.60;4.17;;;38.00;29.70;;;;;;4907007;29;20556;-70
2023/06/05 08:27:19;;;;;;;6.73;4.40;;;36.00;30.50;;;;;;4917331;29;20217;-70
2023/06/05 08:29:45;;;;;;;7.70;5.50;;;36.70;30.80;;;;;;4918934;29;20525;-69
2023/06/05 08:32:10;;;;;;;7.17;5.70;;;37.70;30.30;;;;;;4913904;29;20466;-68
2023/06/05 08:34:36;;;;;;;5.80;5.13;;;38.40;29.70;;;;;;4918951;29;20668;-73
2023/06/05 08:37:02;;;;;;;6.80;5.47;;;38.00;29.20;;;;;;4901833;29;20273;-73
2023/06/05 08:39:31;;;;;;;6.40;5.73;;;37.10;29.80;;;;;;4904134;29;20544;-73
2023/06/05 08:42:00;;;;;;;5.53;5.03;;;36.80;30.60;;;;;;4904549;29;20209;-74
2023/06/05 08:44:27;;;;;;;5.77;5.03;;;36.80;30.30;;;;;;4963375;23;20583;-86
2023/06/05 08:47:00;;;;;;;5.60;5.10;;;37.90;30.50;;;;;;4915878;29;20459;-87
2023/06/05 08:49:29;;;;;;;8.60;7.90;;;38.20;30.40;;;;;;4930957;29;20438;-87
2023/06/05 08:52:00;;;;;;;5.77;5.30;;;37.40;31.50;;;;;;4930558;29;20960;-88
2023/06/05 08:54:27;;;;;;;7.27;6.57;;;37.80;30.80;;;;;;4931166;29;20448;-86
2023/06/05 08:56:52;;;;;;;6.13;5.37;;;36.70;31.50;;;;;;4929238;29;20557;-84
2023/06/05 08:59:20;;;;;;;5.97;5.53;;;36.60;31.90;;;;;;4932064;29;20484;-84
2023/06/05 09:01:49;;;;;;;6.50;5.80;;;35.70;32.80;;;;;;4926849;29;20300;-84
2023/06/05 09:04:15;;;;;;;5.73;5.27;;;37.30;32.50;;;;;;4932087;29;20448;-84
2023/06/05 09:06:47;;;;;;;7.30;5.33;;;37.70;32.00;;;;;;4927572;29;20507;-84
2023/06/05 09:09:15;;;;;;;12.33;11.43;;;37.40;31.70;;;;;;4917230;29;20185;-84
2023/06/05 09:11:40;;;;;;;6.33;5.73;;;38.00;31.80;;;;;;4930866;29;20471;-86
2023/06/05 09:14:06;;;;;;;5.67;5.27;;;38.80;31.50;;;;;;4928216;29;20436;-86
2023/06/05 09:16:38;;;;;;;5.77;5.27;;;38.50;30.30;;;;;;4930290;29;20236;-87
2023/06/05 09:19:05;;;;;;;6.63;5.90;;;38.70;31.00;;;;;;4928352;29;20547;-87
2023/06/05 09:21:31;;;;;;;7.27;5.00;;;38.40;31.20;;;;;;4928452;29;20805;-87
2023/06/05 09:24:24;;;;;;;6.00;5.50;;;38.70;30.80;;;;;;4933127;29;21061;-88
2023/06/05 09:27:10;;;;;;;5.27;4.90;;;38.60;30.70;;;;;;4928717;29;20475;-88
2023/06/05 09:29:40;;;;;;;7.10;5.57;;;38.80;30.10;;;;;;4921613;29;20536;-87
2023/06/05 09:32:23;;;;;;;6.13;5.43;;;39.10;30.30;;;;;;4924195;29;20548;-86
2023/06/05 09:34:59;;;;;;;7.83;7.07;;;39.50;29.70;;;;;;4939436;29;21003;-87
2023/06/05 09:37:37;;;;;;;5.60;5.10;;;38.10;30.80;;;;;;4934762;29;20452;-86
2023/06/05 09:40:07;;;;;;;6.17;5.77;;;37.40;30.60;;;;;;4935283;29;20506;-86
2023/06/05 09:42:34;;;;;;;6.13;5.63;;;37.70;31.20;;;;;;4933183;29;20470;-88
2023/06/05 09:45:00;;;;;;;7.00;6.30;;;37.10;31.20;;;;;;4933685;29;20508;-88
2023/06/05 09:47:26;;;;;;;5.87;4.57;;;37.10;31.50;;;;;;4940059;29;20476;-88
2023/06/05 09:49:52;;;;;;;7.00;5.80;;;36.90;32.50;;;;;;4944226;29;20463;-88
2023/06/05 09:52:17;;;;;;;6.33;5.80;;;36.60;32.60;;;;;;4943112;29;20224;-88
2023/06/05 09:54:44;;;;;;;6.17;5.53;;;36.50;32.80;;;;;;4948362;29;20184;-88
2023/06/05 09:57:11;;;;;;;7.43;6.30;;;37.00;32.70;;;;;;4946694;29;20379;-88
2023/06/05 09:59:51;;;;;;;5.80;5.30;;;37.30;32.00;;;;;;4940192;29;21022;-89
2023/06/05 10:02:18;;;;;;;6.13;5.63;;;37.40;32.20;;;;;;4935300;29;20487;-87
2023/06/05 10:04:50;;;;;;;5.63;5.20;;;37.50;31.90;;;;;;4928150;29;21236;-87
2023/06/05 10:07:15;;;;;;;6.97;5.20;;;36.70;32.60;;;;;;4934680;29;20448;-86
2023/06/05 10:09:41;;;;;;;7.10;6.40;;;35.30;33.80;;;;;;4932236;29;20493;-86
2023/06/05 10:12:08;;;;;;;6.70;6.30;;;35.90;34.70;;;;;;4935619;29;20221;-85
2023/06/05 10:14:36;;;;;;;5.70;5.20;;;34.50;34.80;;;;;;4934156;29;20463;-87
2023/06/05 10:17:02;;;;;;;6.10;5.60;;;32.90;37.50;;;;;;4948492;29;20548;-87
2023/06/05 10:19:29;;;;;;;6.43;5.80;;;33.00;37.70;;;;;;4928965;29;20440;-86
2023/06/05 10:21:55;;;;;;;5.80;5.17;;;33.50;36.80;;;;;;4945309;29;20567;-85
2023/06/05 10:24:34;;;;;;;5.77;5.30;;;34.40;35.70;;;;;;4932671;29;20544;-85
2023/06/05 10:27:12;;;;;;;5.30;5.00;;;34.10;35.00;;;;;;4941586;29;20186;-86
2023/06/05 10:30:16;;;;;;;5.57;5.13;;;32.70;35.60;;;;;;4947449;29;20440;-86
2023/06/05 10:33:05;;;;;;;6.37;5.87;;;31.50;36.90;;;;;;4929631;29;20519;-85
2023/06/05 10:35:41;;;;;;;4.80;4.50;;;29.70;38.90;;;;;;4928339;29;20477;-85
2023/06/05 10:38:22;;;;;;;5.40;4.90;;;29.80;40.10;;;;;;4948799;29;20498;-86
2023/06/05 10:40:52;;;;;;;5.40;5.00;;;30.90;37.70;;;;;;4946306;29;20455;-86
2023/06/05 10:43:36;;;;;;;5.17;4.77;;;31.90;36.80;;;;;;4930398;29;20480;-86
2023/06/05 10:46:35;;;;;;;4.93;4.50;;;32.50;35.30;;;;;;4932059;29;20452;-86
2023/06/05 10:49:19;;;;;;;5.17;4.77;;;32.90;34.30;;;;;;4927434;29;20448;-86
2023/06/05 10:51:53;;;;;;;4.53;4.13;;;32.00;33.80;;;;;;4933663;29;20479;-86
2023/06/05 10:54:22;;;;;;;4.50;4.10;;;30.80;35.00;;;;;;4944957;29;20445;-88
2023/06/05 10:56:59;;;;;;;5.43;4.77;;;31.70;34.90;;;;;;4924652;29;20560;-86
2023/06/05 10:59:36;;;;;;;4.97;4.37;;;32.50;33.60;;;;;;4933908;29;20459;-86
2023/06/05 11:02:05;;;;;;;4.63;4.23;;;34.10;32.50;;;;;;4931949;29;20472;-87
2023/06/05 11:04:43;;;;;;;5.63;4.00;;;36.00;31.20;;;;;;4928936;29;20499;-87
2023/06/05 11:07:28;;;;;;;4.73;4.23;;;34.90;30.40;;;;;;4933764;29;20447;-85
2023/06/05 11:10:06;;;;;;;5.13;4.63;;;35.20;30.00;;;;;;4932846;29;20464;-86
2023/06/05 11:12:40;;;;;;;5.87;5.47;;;34.00;30.10;;;;;;4926400;29;20760;-88
2023/06/05 11:15:07;;;;;;;5.57;4.50;;;32.80;32.40;;;;;;4927824;29;21027;-86
2023/06/05 11:17:37;;;;;;;4.57;4.27;;;31.30;33.10;;;;;;4936953;29;20445;-88
2023/06/05 11:20:09;;;;;;;4.30;4.00;;;30.90;34.20;;;;;;4931684;29;20974;-88
2023/06/05 11:22:54;;;;;;;5.10;4.70;;;32.50;33.50;;;;;;4927667;29;20473;-86
2023/06/05 11:25:26;;;;;;;6.10;5.23;;;33.60;31.30;;;;;;4938903;29;20475;-87
2023/06/05 11:28:01;;;;;;;4.43;4.13;;;34.10;30.60;;;;;;4931341;29;20448;-89
2023/06/05 11:30:32;;;;;;;5.63;5.23;;;34.30;30.40;;;;;;4927524;29;20487;-89
2023/06/05 11:33:12;;;;;;;4.30;3.90;;;36.20;31.30;;;;;;4923503;29;20496;-87
2023/06/05 11:35:38;;;;;;;4.87;4.50;;;34.20;30.30;;;;;;4930776;29;20444;-88
2023/06/05 11:38:18;;;;;;;4.73;4.33;;;32.80;30.50;;;;;;4932436;29;20491;-89
2023/06/05 11:40:44;;;;;;;5.83;5.43;;;32.90;31.30;;;;;;4934339;29;20441;-90
2023/06/05 11:43:11;;;;;;;5.43;5.03;;;32.80;31.90;;;;;;4930250;29;20552;-90
2023/06/05 11:45:41;;;;;;;6.70;5.37;;;32.90;31.70;;;;;;4934814;29;20260;-87
2023/06/05 11:48:11;;;;;;;5.93;4.80;;;32.80;31.60;;;;;;4936980;29;20834;-88
2023/06/05 11:50:39;;;;;;;4.40;4.00;;;32.50;32.40;;;;;;4929495;29;20444;-87
2023/06/05 11:53:11;;;;;;;7.30;5.90;;;31.90;32.20;;;;;;4928812;29;20526;-88
2023/06/05 11:55:53;;;;;;;5.10;4.60;;;31.00;33.30;;;;;;4933168;29;20460;-88
2023/06/05 11:58:29;;;;;;;5.87;4.57;;;31.10;34.30;;;;;;4938375;29;20491;-88
2023/06/05 12:01:17;;;;;;;5.77;4.53;;;30.50;34.20;;;;;;4933490;29;20457;-86
2023/06/05 12:03:45;;;;;;;5.90;4.10;;;29.90;34.90;;;;;;4923926;29;20513;-86
2023/06/05 12:06:17;;;;;;;5.20;4.27;;;29.30;36.10;;;;;;4930699;29;20465;-85
2023/06/05 12:08:44;;;;;;;4.33;3.93;;;30.80;36.90;;;;;;4942368;29;20530;-87
2023/06/05 12:11:25;;;;;;;4.40;4.10;;;29.30;36.50;;;;;;4927233;29;20452;-88
2023/06/05 12:13:53;;;;;;;5.10;4.70;;;29.20;36.90;;;;;;4936034;29;20456;-87
2023/06/05 12:16:30;;;;;;;5.37;4.87;;;29.00;37.10;;;;;;4943117;29;20471;-88
2023/06/05 12:18:55;;;;;;;5.27;4.87;;;28.30;37.00;;;;;;4930572;29;20538;-87
2023/06/05 12:21:23;;;;;;;4.90;4.50;;;28.80;38.10;;;;;;4931669;29;20538;-86
2023/06/05 12:23:49;;;;;;;5.50;4.70;;;28.30;37.20;;;;;;4922218;29;20221;-87
2023/06/05 12:26:15;;;;;;;6.50;4.47;;;28.80;37.00;;;;;;4930570;29;20465;-87
2023/06/05 12:28:43;;;;;;;8.13;4.40;;;28.50;36.90;;;;;;4927791;29;20489;-87
2023/06/05 12:31:08;;;;;;;7.20;5.10;;;28.80;37.10;;;;;;4929899;29;20519;-88
2023/06/05 12:33:48;;;;;;;5.60;5.10;;;28.50;37.30;;;;;;4926699;29;20451;-87
2023/06/05 12:36:14;;;;;;;6.20;5.70;;;27.90;37.20;;;;;;4928655;29;20563;-87
2023/06/05 12:38:41;;;;;;;5.13;4.73;;;27.70;37.90;;;;;;4929681;29;20457;-86
2023/06/05 12:41:09;;;;;;;5.00;4.50;;;27.50;37.60;;;;;;4943449;29;20465;-87
2023/06/05 12:43:36;;;;;;;5.00;4.60;;;27.60;38.10;;;;;;4922150;29;20480;-87
2023/06/05 12:46:02;;;;;;;6.40;4.90;;;27.90;38.80;;;;;;4944342;29;20452;-88
2023/06/05 12:48:32;;;;;;;4.50;4.10;;;28.00;37.80;;;;;;4932524;29;20443;-89
2023/06/05 12:50:57;;;;;;;4.20;3.90;;;27.70;37.30;;;;;;4930589;29;20454;-88
2023/06/05 12:53:23;;;;;;;4.83;4.43;;;27.70;37.60;;;;;;4929968;29;20995;-88